createdAt,value
2022-11-20T00:01:40.900Z,-3.60
2022-11-20T00:04:42.728Z,-3.50
2022-11-20T00:07:44.664Z,-3.60
2022-11-20T00:10:46.550Z,-3.50
2022-11-20T00:13:54.339Z,-3.20
2022-11-20T00:16:56.191Z,-3.60
2022-11-20T00:19:57.923Z,-3.80
2022-11-20T00:23:00.202Z,-3.70
2022-11-20T00:26:06.828Z,-3.10
2022-11-20T00:29:10.926Z,-3.60
2022-11-20T00:32:12.669Z,-3.90
2022-11-20T00:35:14.529Z,-3.70
2022-11-20T00:38:16.313Z,-3.80
2022-11-20T00:41:18.073Z,-3.80
2022-11-20T00:44:19.872Z,-3.80
2022-11-20T00:47:21.717Z,-3.80
2022-11-20T00:50:26.418Z,-3.80
2022-11-20T00:53:29.272Z,-3.70
2022-11-20T00:56:31.107Z,-3.30
2022-11-20T00:59:32.893Z,-3.90
2022-11-20T01:02:34.652Z,-3.80
2022-11-20T01:05:37.187Z,-3.90
2022-11-20T01:08:39.651Z,-4.00
2022-11-20T01:11:45.619Z,-3.90
2022-11-20T01:14:48.399Z,-4.00
2022-11-20T01:17:50.175Z,-4.10
2022-11-20T01:20:51.924Z,-4.00
2022-11-20T01:23:54.041Z,-4.20
2022-11-20T01:26:55.858Z,-4.10
2022-11-20T01:30:01.136Z,-3.70
2022-11-20T01:33:03.341Z,-4.10
2022-11-20T01:36:08.991Z,-4.10
2022-11-20T01:39:17.480Z,-4.10
2022-11-20T01:42:37.558Z,-4.10
2022-11-20T01:45:57.279Z,-4.10
2022-11-20T01:49:00.802Z,-4.10
2022-11-20T01:52:14.893Z,-4.20
2022-11-20T01:55:22.973Z,-4.20
2022-11-20T01:58:34.923Z,-4.30
2022-11-20T02:01:37.382Z,-4.30
2022-11-20T02:04:39.232Z,-4.30
2022-11-20T02:07:42.092Z,-4.40
2022-11-20T02:10:43.846Z,-4.40
2022-11-20T02:13:47.048Z,-4.40
2022-11-20T02:16:50.430Z,-4.40
2022-11-20T02:19:52.349Z,-4.40
2022-11-20T02:23:05.991Z,-4.40
2022-11-20T02:26:13.222Z,-4.40
2022-11-20T02:29:19.091Z,-4.40
2022-11-20T02:32:22.866Z,-4.40
2022-11-20T02:35:24.493Z,-4.40
2022-11-20T02:38:26.321Z,-4.40
2022-11-20T02:41:38.293Z,-4.40
2022-11-20T02:44:40.175Z,-4.40
2022-11-20T02:47:42.917Z,-4.40
2022-11-20T02:50:44.721Z,-4.30
2022-11-20T02:53:46.509Z,-4.50
2022-11-20T02:56:48.202Z,-4.50
2022-11-20T02:59:50.006Z,-4.60
2022-11-20T03:02:51.770Z,-4.50
2022-11-20T03:05:53.502Z,-4.50
2022-11-20T03:08:55.671Z,-4.50
2022-11-20T03:11:57.547Z,-4.50
2022-11-20T03:14:59.274Z,-4.50
2022-11-20T03:18:01.028Z,-4.60
2022-11-20T03:21:02.849Z,-4.60
2022-11-20T03:24:04.893Z,-4.60
2022-11-20T03:27:06.588Z,-4.60
2022-11-20T03:30:09.007Z,-4.60
2022-11-20T03:33:10.890Z,-4.60
2022-11-20T03:36:15.078Z,-4.70
2022-11-20T03:39:18.944Z,-4.80
2022-11-20T03:42:39.215Z,-4.80
2022-11-20T03:45:40.971Z,-4.90
2022-11-20T03:48:45.369Z,-4.80
2022-11-20T03:51:50.572Z,-4.80
2022-11-20T03:54:52.247Z,-4.80
2022-11-20T03:57:53.930Z,-4.90
2022-11-20T04:00:55.773Z,-4.80
2022-11-20T04:03:58.157Z,-4.90
2022-11-20T04:06:59.938Z,-4.90
2022-11-20T04:10:01.717Z,-4.90
2022-11-20T04:13:03.531Z,-4.90
2022-11-20T04:16:06.606Z,-4.90
2022-11-20T04:19:13.983Z,-4.90
2022-11-20T04:22:15.761Z,-4.50
2022-11-20T04:25:17.640Z,-5.10
2022-11-20T04:28:19.475Z,-4.90
2022-11-20T04:31:24.035Z,-5.00
2022-11-20T04:34:25.812Z,-5.00
2022-11-20T04:37:27.677Z,-5.10
2022-11-20T04:40:29.918Z,-4.60
2022-11-20T04:43:32.810Z,-5.00
2022-11-20T04:46:37.562Z,-4.90
2022-11-20T04:49:39.371Z,-4.90
2022-11-20T04:52:41.158Z,-5.00
2022-11-20T04:55:43.032Z,-4.90
2022-11-20T04:58:45.085Z,-4.90
2022-11-20T05:01:46.895Z,-4.90
2022-11-20T05:04:49.016Z,-5.00
2022-11-20T05:07:50.926Z,-4.70
2022-11-20T05:10:52.640Z,-5.00
2022-11-20T05:13:54.649Z,-5.10
2022-11-20T05:16:56.533Z,-5.10
2022-11-20T05:19:58.415Z,-5.20
2022-11-20T05:23:00.480Z,-5.20
2022-11-20T05:26:02.856Z,-5.20
2022-11-20T05:29:04.725Z,-5.20
2022-11-20T05:32:08.348Z,-5.20
2022-11-20T05:35:10.121Z,-5.30
2022-11-20T05:38:11.884Z,-5.20
2022-11-20T05:41:16.052Z,-5.20
2022-11-20T05:44:17.729Z,-5.30
2022-11-20T05:47:19.522Z,-5.30
2022-11-20T05:50:21.363Z,-5.30
2022-11-20T05:53:23.165Z,-5.10
2022-11-20T05:56:24.930Z,-5.40
2022-11-20T05:59:26.707Z,-5.40
2022-11-20T06:02:28.558Z,-5.30
2022-11-20T06:05:30.386Z,-5.40
2022-11-20T06:08:32.970Z,-5.30
2022-11-20T06:11:34.746Z,-5.30
2022-11-20T06:14:36.513Z,-5.30
2022-11-20T06:17:38.310Z,-5.10
2022-11-20T06:20:42.233Z,-5.30
2022-11-20T06:23:44.806Z,-5.40
2022-11-20T06:26:48.143Z,-5.30
2022-11-20T06:29:50.744Z,-5.30
2022-11-20T06:32:52.609Z,-5.30
2022-11-20T06:36:00.438Z,-5.30
2022-11-20T06:39:04.341Z,-5.30
2022-11-20T06:42:17.473Z,-5.30
2022-11-20T06:45:19.220Z,-5.30
2022-11-20T06:48:21.619Z,-5.30
2022-11-20T06:51:23.457Z,-5.40
2022-11-20T06:54:25.185Z,-5.30
2022-11-20T06:57:26.900Z,-5.30
2022-11-20T07:00:28.715Z,-5.10
2022-11-20T07:03:31.013Z,-5.10
2022-11-20T07:06:32.967Z,-5.30
2022-11-20T07:09:35.001Z,-5.20
2022-11-20T07:12:36.812Z,-5.30
2022-11-20T07:15:38.592Z,-5.20
2022-11-20T07:18:40.430Z,-5.20
2022-11-20T07:21:42.151Z,-5.20
2022-11-20T07:24:46.126Z,-5.10
2022-11-20T07:27:48.091Z,-5.10
2022-11-20T07:30:53.986Z,-5.00
2022-11-20T07:33:55.751Z,-4.90
2022-11-20T07:36:57.485Z,-4.80
2022-11-20T07:39:59.242Z,-4.80
2022-11-20T07:43:01.001Z,-4.70
2022-11-20T07:46:02.757Z,-4.60
2022-11-20T07:49:04.524Z,-4.60
2022-11-20T07:52:06.406Z,-4.50
2022-11-20T07:55:09.482Z,-4.40
2022-11-20T07:58:27.694Z,-4.40
2022-11-20T08:01:29.425Z,-4.40
2022-11-20T08:04:31.333Z,-4.40
2022-11-20T08:07:40.929Z,-4.30
2022-11-20T08:10:42.696Z,-4.10
2022-11-20T08:14:03.348Z,-4.10
2022-11-20T08:17:05.131Z,-4.00
2022-11-20T08:20:07.204Z,-4.00
2022-11-20T08:23:09.476Z,-3.80
2022-11-20T08:26:11.329Z,-3.90
2022-11-20T08:29:13.409Z,-3.80
2022-11-20T08:32:15.246Z,-3.70
2022-11-20T08:35:17.048Z,-3.70
2022-11-20T08:38:18.882Z,-3.70
2022-11-20T08:41:26.528Z,-3.60
2022-11-20T08:44:28.371Z,-3.40
2022-11-20T08:47:30.367Z,-3.50
2022-11-20T08:50:33.494Z,-3.50
2022-11-20T08:53:35.766Z,-3.30
2022-11-20T08:56:37.997Z,-3.30
2022-11-20T09:03:02.731Z,-3.20
2022-11-20T09:06:07.647Z,-3.10
2022-11-20T09:09:09.406Z,-3.10
2022-11-20T09:12:11.506Z,-3.00
2022-11-20T09:15:13.544Z,-2.90
2022-11-20T09:18:15.423Z,-2.80
2022-11-20T09:21:17.761Z,-2.70
2022-11-20T09:24:22.793Z,-2.60
2022-11-20T09:27:24.672Z,-2.40
2022-11-20T09:30:27.266Z,-2.50
2022-11-20T09:33:29.132Z,-2.50
2022-11-20T09:36:31.224Z,-2.50
2022-11-20T09:39:33.057Z,-2.40
2022-11-20T09:42:59.054Z,-2.30
2022-11-20T09:46:10.343Z,-2.10
2022-11-20T09:49:32.576Z,-1.80
2022-11-20T09:52:49.779Z,-1.60
2022-11-20T09:55:52.293Z,-1.30
2022-11-20T09:58:56.301Z,-1.10
2022-11-20T10:02:00.103Z,-0.90
2022-11-20T10:05:31.097Z,-0.70
2022-11-20T10:08:45.729Z,-0.50
2022-11-20T10:12:11.881Z,-0.40
2022-11-20T10:15:22.669Z,-0.20
2022-11-20T10:19:01.758Z,-0.10
2022-11-20T10:22:43.640Z,0.00
2022-11-20T10:25:51.453Z,0.10
2022-11-20T10:29:22.583Z,0.20
2022-11-20T10:32:39.850Z,0.20
2022-11-20T10:36:03.821Z,0.30
2022-11-20T10:39:17.732Z,0.40
2022-11-20T10:42:44.112Z,0.60
2022-11-20T10:45:59.031Z,0.50
2022-11-20T10:49:01.073Z,0.60
2022-11-20T10:52:41.668Z,0.60
2022-11-20T10:56:17.174Z,0.70
2022-11-20T10:59:56.243Z,0.70
2022-11-20T11:03:03.358Z,0.70
2022-11-20T11:06:31.274Z,0.70
2022-11-20T11:09:40.700Z,0.70
2022-11-20T11:12:46.950Z,0.70
2022-11-20T11:15:48.790Z,1.20
2022-11-20T11:18:50.998Z,1.20
2022-11-20T11:22:00.135Z,0.60
2022-11-20T11:25:02.394Z,1.00
2022-11-20T11:28:20.748Z,1.20
2022-11-20T11:31:33.214Z,0.80
2022-11-20T11:34:35.469Z,0.70
2022-11-20T11:37:40.181Z,0.60
2022-11-20T11:40:42.222Z,0.90
2022-11-20T11:44:11.840Z,0.40
2022-11-20T11:47:22.314Z,0.60
2022-11-20T11:50:26.339Z,0.40
2022-11-20T11:53:29.918Z,0.20
2022-11-20T11:56:34.015Z,0.20
2022-11-20T11:59:58.692Z,0.10
2022-11-20T12:03:16.462Z,0.10
2022-11-20T12:06:18.549Z,0.10
2022-11-20T12:09:25.635Z,0.10
2022-11-20T12:12:36.647Z,0.10
2022-11-20T12:15:43.756Z,0.10
2022-11-20T12:18:49.968Z,0.20
2022-11-20T12:22:05.023Z,0.10
2022-11-20T12:25:19.801Z,0.00
2022-11-20T12:28:30.582Z,0.10
2022-11-20T12:31:56.779Z,0.10
2022-11-20T12:35:35.508Z,0.10
2022-11-20T12:38:58.809Z,0.10
2022-11-20T12:42:57.054Z,0.10
2022-11-20T12:46:07.734Z,0.10
2022-11-20T12:49:33.538Z,0.10
2022-11-20T12:53:11.391Z,0.10
2022-11-20T12:56:40.456Z,0.10
2022-11-20T13:00:11.875Z,0.10
2022-11-20T13:03:40.136Z,0.10
2022-11-20T13:06:52.344Z,0.10
2022-11-20T13:09:55.399Z,0.10
2022-11-20T13:13:19.779Z,0.00
2022-11-20T13:16:38.086Z,0.10
2022-11-20T13:19:40.451Z,0.10
2022-11-20T13:22:49.510Z,0.10
2022-11-20T13:25:51.290Z,0.10
2022-11-20T13:29:18.621Z,0.10
2022-11-20T13:32:22.590Z,0.10
2022-11-20T13:35:35.893Z,0.10
2022-11-20T13:38:52.671Z,0.10
2022-11-20T13:42:03.256Z,0.00
2022-11-20T13:45:12.402Z,0.00
2022-11-20T13:48:26.774Z,0.00
2022-11-20T13:51:52.941Z,-0.10
2022-11-20T13:55:34.641Z,0.10
2022-11-20T13:58:53.698Z,0.10
2022-11-20T14:01:55.787Z,0.00
2022-11-20T14:05:00.777Z,-0.10
2022-11-20T14:08:06.414Z,-0.10
2022-11-20T14:11:21.028Z,0.10
2022-11-20T14:14:31.771Z,0.00
2022-11-20T14:17:35.661Z,0.40
2022-11-20T14:20:42.528Z,-0.10
2022-11-20T14:23:44.509Z,0.40
2022-11-20T14:26:47.460Z,0.10
2022-11-20T14:29:52.157Z,-0.10
2022-11-20T14:33:02.630Z,0.30
2022-11-20T14:36:25.731Z,0.20
2022-11-20T14:39:34.919Z,0.10
2022-11-20T14:42:38.401Z,-0.20
2022-11-20T14:45:47.111Z,-0.20
2022-11-20T14:48:55.324Z,0.00
2022-11-20T14:52:15.999Z,0.00
2022-11-20T14:55:34.277Z,-0.10
2022-11-20T14:58:36.154Z,-0.20
2022-11-20T15:01:38.551Z,0.10
2022-11-20T15:04:51.515Z,-0.10
2022-11-20T15:08:09.112Z,-0.40
2022-11-20T15:11:30.332Z,-0.40
2022-11-20T15:14:33.620Z,-0.40
2022-11-20T15:17:39.708Z,-0.40
2022-11-20T15:20:45.109Z,-0.50
2022-11-20T15:23:46.931Z,-0.70
2022-11-20T15:26:48.889Z,-0.50
2022-11-20T15:29:50.666Z,-0.60
2022-11-20T15:32:52.520Z,-0.40
2022-11-20T15:35:54.326Z,-0.70
2022-11-20T15:38:58.247Z,-0.60
2022-11-20T15:41:59.979Z,-0.70
2022-11-20T15:45:01.986Z,-0.70
2022-11-20T15:48:04.477Z,-0.70
2022-11-20T15:51:12.363Z,-0.50
2022-11-20T15:54:23.800Z,-0.60
2022-11-20T15:57:26.359Z,-0.60
2022-11-20T16:00:28.172Z,-0.60
2022-11-20T16:03:29.941Z,-0.60
2022-11-20T16:06:31.732Z,-0.70
2022-11-20T16:09:36.647Z,-0.70
2022-11-20T16:12:56.840Z,-0.60
2022-11-20T16:16:00.605Z,-0.20
2022-11-20T16:19:02.527Z,-0.60
2022-11-20T16:22:04.881Z,-0.60
2022-11-20T16:25:06.949Z,-0.60
2022-11-20T16:28:08.747Z,-0.50
2022-11-20T16:31:14.619Z,-0.70
2022-11-20T16:34:17.822Z,-0.60
2022-11-20T16:37:19.561Z,-0.50
2022-11-20T16:40:21.660Z,-0.70
2022-11-20T16:43:23.497Z,-0.50
2022-11-20T16:46:27.373Z,-0.50
2022-11-20T16:49:29.092Z,-0.50
2022-11-20T16:52:31.509Z,-0.40
2022-11-20T16:55:33.269Z,-0.50
2022-11-20T16:58:35.058Z,0.10
2022-11-20T17:01:40.143Z,-0.40
2022-11-20T17:04:41.914Z,-0.30
2022-11-20T17:07:43.797Z,-0.10
2022-11-20T17:10:45.934Z,0.10
2022-11-20T17:13:48.452Z,0.20
2022-11-20T17:16:52.983Z,-0.20
2022-11-20T17:19:54.782Z,0.10
2022-11-20T17:22:56.883Z,0.20
2022-11-20T17:26:06.927Z,0.00
2022-11-20T17:29:15.135Z,-0.30
2022-11-20T17:32:16.955Z,-0.10
2022-11-20T17:35:18.776Z,-0.10
2022-11-20T17:38:20.552Z,0.00
2022-11-20T17:41:26.727Z,-0.20
2022-11-20T17:44:28.502Z,0.30
2022-11-20T17:47:30.244Z,-0.10
2022-11-20T17:50:31.912Z,-0.10
2022-11-20T17:53:35.993Z,-0.10
2022-11-20T17:56:56.156Z,-0.10
2022-11-20T17:59:57.913Z,-0.10
2022-11-20T18:02:59.671Z,0.00
2022-11-20T18:06:23.412Z,0.10
2022-11-20T18:09:25.278Z,0.20
2022-11-20T18:12:27.037Z,0.30
2022-11-20T18:15:29.656Z,0.20
2022-11-20T18:18:31.339Z,0.10
2022-11-20T18:21:36.359Z,0.00
2022-11-20T18:24:42.267Z,0.30
2022-11-20T18:27:44.405Z,0.40
2022-11-20T18:30:46.263Z,0.40
2022-11-20T18:33:48.249Z,0.10
2022-11-20T18:36:53.029Z,0.10
2022-11-20T18:39:56.025Z,0.30
2022-11-20T18:43:16.482Z,0.40
2022-11-20T18:46:22.156Z,0.20
2022-11-20T18:49:26.827Z,0.30
2022-11-20T18:52:39.989Z,0.40
2022-11-20T18:55:41.627Z,0.30
2022-11-20T18:58:49.449Z,0.30
2022-11-20T19:01:56.628Z,0.30
2022-11-20T19:04:58.401Z,0.40
2022-11-20T19:08:00.556Z,0.20
2022-11-20T19:11:10.427Z,0.50
2022-11-20T19:14:12.185Z,0.40
2022-11-20T19:17:14.600Z,0.30
2022-11-20T19:20:25.616Z,0.10
2022-11-20T19:23:27.522Z,0.30
2022-11-20T19:26:30.010Z,0.40
2022-11-20T19:29:31.789Z,0.20
2022-11-20T19:32:35.289Z,0.20
2022-11-20T19:35:45.064Z,0.60
2022-11-20T19:38:50.997Z,0.10
2022-11-20T19:41:53.041Z,0.10
2022-11-20T19:44:54.795Z,0.40
2022-11-20T19:48:07.720Z,0.10
2022-11-20T19:55:20.561Z,0.30
2022-11-20T19:58:22.355Z,-0.10
2022-11-20T20:01:26.831Z,0.50
2022-11-20T20:04:28.744Z,0.00
2022-11-20T20:07:30.524Z,0.30
2022-11-20T20:10:47.898Z,0.10
2022-11-20T20:13:53.610Z,0.30
2022-11-20T20:16:55.644Z,0.20
2022-11-20T20:19:57.432Z,0.60
2022-11-20T20:22:59.242Z,0.70
2022-11-20T20:26:01.521Z,0.30
2022-11-20T20:29:09.419Z,-0.10
2022-11-20T20:32:11.320Z,-0.10
2022-11-20T20:35:13.063Z,-0.20
2022-11-20T20:38:14.825Z,0.00
2022-11-20T20:41:19.975Z,-0.30
2022-11-20T20:44:40.257Z,-0.30
2022-11-20T20:47:42.377Z,-0.30
2022-11-20T20:51:01.012Z,-0.20
2022-11-20T20:54:03.474Z,-0.20
2022-11-20T20:57:05.321Z,-0.40
2022-11-20T21:00:08.791Z,-0.20
2022-11-20T21:03:10.562Z,-0.20
2022-11-20T21:06:13.617Z,-0.30
2022-11-20T21:09:15.462Z,-0.40
2022-11-20T21:12:17.268Z,-0.40
2022-11-20T21:15:19.202Z,-0.30
2022-11-20T21:18:22.480Z,-0.30
2022-11-20T21:22:03.137Z,-0.40
2022-11-20T21:25:05.179Z,-0.30
2022-11-20T21:28:07.273Z,-0.30
2022-11-20T21:31:11.765Z,-0.40
2022-11-20T21:34:14.511Z,-0.40
2022-11-20T21:37:16.290Z,-0.40
2022-11-20T21:40:18.112Z,-0.30
2022-11-20T21:43:19.909Z,-0.50
2022-11-20T21:46:21.763Z,-0.50
2022-11-20T21:49:23.917Z,-0.50
2022-11-20T21:52:25.811Z,-0.50
2022-11-20T21:55:27.555Z,-0.30
2022-11-20T21:58:29.319Z,-0.70
2022-11-20T22:01:31.606Z,-0.70
2022-11-20T22:04:33.420Z,-0.60
2022-11-20T22:07:35.422Z,-0.70
2022-11-20T22:10:37.283Z,-0.70
2022-11-20T22:13:57.553Z,-0.60
2022-11-20T22:16:59.238Z,-0.30
2022-11-20T22:20:03.507Z,-0.50
2022-11-20T22:23:05.572Z,-0.60
2022-11-20T22:26:16.731Z,-0.60
2022-11-20T22:29:21.122Z,-0.60
2022-11-20T22:32:22.935Z,-0.50
2022-11-20T22:35:24.725Z,-0.40
2022-11-20T22:38:37.965Z,-0.20
2022-11-20T22:41:41.182Z,-0.30
2022-11-20T22:44:42.945Z,-0.50
2022-11-20T22:47:44.704Z,-0.90
2022-11-20T22:50:49.038Z,-0.60
2022-11-20T22:53:51.306Z,-0.70
2022-11-20T22:56:53.141Z,-0.60
2022-11-20T22:59:56.914Z,-0.50
2022-11-20T23:03:00.640Z,-0.10
2022-11-20T23:06:05.688Z,0.00
2022-11-20T23:09:08.520Z,-0.40
2022-11-20T23:12:22.658Z,-0.40
2022-11-20T23:15:27.238Z,-0.50
2022-11-20T23:18:29.019Z,-0.40
2022-11-20T23:21:31.097Z,-0.60
2022-11-20T23:24:32.802Z,-0.50
2022-11-20T23:27:34.465Z,-0.60
2022-11-20T23:30:36.240Z,-0.70
2022-11-20T23:33:42.830Z,-0.70
2022-11-20T23:36:47.121Z,-0.70
2022-11-20T23:39:48.963Z,-0.80
2022-11-20T23:43:16.027Z,-0.50
2022-11-20T23:46:17.841Z,-0.30
2022-11-20T23:49:19.617Z,-0.60
2022-11-20T23:52:22.179Z,-0.70
2022-11-20T23:55:24.053Z,-0.70
2022-11-20T23:58:30.053Z,-0.70
